Terminal Aerodrome Forecast
Issued by NWS Quad Cities IA IL

Home | Current Version | Previous Version | Text Only | Print | Product List | Glossary On
Versions: 1 2 3 4 5 6 7 8 9 10 11 12 13 14 15 16 17 18 19 20 21 22 23 24 25
671
FTUS43 KDVN 050316 AAB
TAFDBQ
TAF AMD
KDBQ 050316Z 0503/0524 25010KT P6SM OVC005
     FM050600 23005KT 3SM BR OVC004
     FM050800 24006KT 1/2SM FG VV003
     FM051300 22006KT 1SM BR OVC005
     FM051600 18012KT 6SM HZ OVC015=

USA.gov is the U.S. government's official web portal to all federal, state and local government web resources and services.